<?xml version="1.0" encoding="UTF-8"?><gpx version="1.0"><name>FlightAirMap GPX Feed</name><trk><name>ADV9006 Adventures | N200NV B737-823 (B738) | KATL - KDCA</name><number>1</number><trkseg><trkpt lat="33.6389" lon="-84.4249"><ele>1005.42</ele><time>2026-05-05T17:29:51+00:00</time></trkpt><trkpt lat="33.6356" lon="-84.4084"><ele>1005.67</ele><time>2026-05-05T17:34:58+00:00</time></trkpt><trkpt lat="33.6383" lon="-84.4251"><ele>1005.44</ele><time>2026-05-05T17:44:40+00:00</time></trkpt><trkpt lat="33.6347" lon="-84.4148"><ele>1005.17</ele><time>2026-05-05T17:49:48+00:00</time></trkpt><trkpt lat="33.638" lon="-84.4242"><ele>923.54</ele><time>2026-05-05T17:59:49+00:00</time></trkpt><trkpt lat="33.6349" lon="-84.4396"><ele>1504.98</ele><time>2026-05-05T18:04:58+00:00</time></trkpt><trkpt lat="33.456" lon="-84.3624"><ele>14571</ele><time>2026-05-05T18:09:32+00:00</time></trkpt><trkpt lat="33.7158" lon="-83.7519"><ele>26130.7</ele><time>2026-05-05T18:14:39+00:00</time></trkpt><trkpt lat="34.0628" lon="-83.083"><ele>33983.5</ele><time>2026-05-05T18:19:44+00:00</time></trkpt><trkpt lat="34.4283" lon="-82.3813"><ele>38992.9</ele><time>2026-05-05T18:24:48+00:00</time></trkpt><trkpt lat="34.7754" lon="-81.7604"><ele>39008.3</ele><time>2026-05-05T18:29:51+00:00</time></trkpt><trkpt lat="35.1533" lon="-81.1287"><ele>38994.7</ele><time>2026-05-05T18:34:55+00:00</time></trkpt><trkpt lat="35.5216" lon="-80.5028"><ele>39009.2</ele><time>2026-05-05T18:39:58+00:00</time></trkpt><trkpt lat="35.884" lon="-79.8754"><ele>38999.8</ele><time>2026-05-05T18:45:02+00:00</time></trkpt><trkpt lat="36.2465" lon="-79.2536"><ele>38997.3</ele><time>2026-05-05T18:49:36+00:00</time></trkpt><trkpt lat="36.609" lon="-78.6339"><ele>39007.8</ele><time>2026-05-05T18:54:39+00:00</time></trkpt><trkpt lat="37.0337" lon="-78.1255"><ele>33181</ele><time>2026-05-05T18:59:43+00:00</time></trkpt><trkpt lat="37.4116" lon="-77.6644"><ele>25627.5</ele><time>2026-05-05T19:04:47+00:00</time></trkpt><trkpt lat="37.8199" lon="-77.376"><ele>18983</ele><time>2026-05-05T19:09:51+00:00</time></trkpt><trkpt lat="38.215" lon="-77.253"><ele>12789.8</ele><time>2026-05-05T19:14:56+00:00</time></trkpt><trkpt lat="38.5883" lon="-77.1095"><ele>9813.34</ele><time>2026-05-05T19:20:00+00:00</time></trkpt><trkpt lat="38.9219" lon="-77.2294"><ele>4079.27</ele><time>2026-05-05T19:24:35+00:00</time></trkpt><trkpt lat="38.8797" lon="-77.042"><ele>671.01</ele><time>2026-05-05T19:29:41+00:00</time></trkpt><trkpt lat="38.838" lon="-77.0378"><ele>314.79</ele><time>2026-05-05T19:35:02+00:00</time></trkpt></trkseg></trk><trk><name>ADV9006 Adventures | N200NV B737-823 (B738) | KATL - KDCA</name><number>1</number><trkseg><trkpt lat="33.6388" lon="-84.4419"><ele>1117.63</ele><time>2026-04-25T23:59:02+00:00</time></trkpt><trkpt lat="33.6388" lon="-84.4419"><ele>1117.63</ele><time>2026-04-25T23:59:02+00:00</time></trkpt><trkpt lat="33.6388" lon="-84.4419"><ele>1005.06</ele><time>2026-04-26T00:09:06+00:00</time></trkpt><trkpt lat="33.6388" lon="-84.4419"><ele>1005.06</ele><time>2026-04-26T00:14:45+00:00</time></trkpt><trkpt lat="33.6391" lon="-84.4412"><ele>1005.09</ele><time>2026-04-26T00:19:55+00:00</time></trkpt><trkpt lat="33.6358" lon="-84.429"><ele>1004.47</ele><time>2026-04-26T00:24:37+00:00</time></trkpt><trkpt lat="33.6346" lon="-84.4418"><ele>1506.67</ele><time>2026-04-26T00:29:49+00:00</time></trkpt><trkpt lat="33.4595" lon="-84.3285"><ele>14350.7</ele><time>2026-04-26T00:34:58+00:00</time></trkpt><trkpt lat="33.7359" lon="-83.7061"><ele>24784.7</ele><time>2026-04-26T00:40:03+00:00</time></trkpt><trkpt lat="33.7359" lon="-83.7061"><ele>24784.7</ele><time>2026-04-26T00:44:38+00:00</time></trkpt><trkpt lat="34.0899" lon="-83.0318"><ele>31013.1</ele><time>2026-04-26T00:49:42+00:00</time></trkpt><trkpt lat="34.4673" lon="-82.3026"><ele>30999.3</ele><time>2026-04-26T00:54:47+00:00</time></trkpt><trkpt lat="34.8731" lon="-81.5981"><ele>30994.8</ele><time>2026-04-26T00:59:51+00:00</time></trkpt><trkpt lat="35.7046" lon="-80.1876"><ele>31000.6</ele><time>2026-04-26T01:04:56+00:00</time></trkpt><trkpt lat="36.1194" lon="-79.4723"><ele>30999.8</ele><time>2026-04-26T01:10:00+00:00</time></trkpt><trkpt lat="36.1194" lon="-79.4723"><ele>30999.8</ele><time>2026-04-26T01:14:34+00:00</time></trkpt><trkpt lat="36.5292" lon="-78.7624"><ele>29578.9</ele><time>2026-04-26T01:19:38+00:00</time></trkpt><trkpt lat="37.0286" lon="-78.1317"><ele>31002.3</ele><time>2026-04-26T01:24:43+00:00</time></trkpt><trkpt lat="37.8841" lon="-77.3561"><ele>17999.9</ele><time>2026-04-26T01:29:49+00:00</time></trkpt><trkpt lat="38.4404" lon="-77.1665"><ele>10626.2</ele><time>2026-04-26T01:34:55+00:00</time></trkpt><trkpt lat="38.7709" lon="-77.0674"><ele>6288.32</ele><time>2026-04-26T01:40:00+00:00</time></trkpt><trkpt lat="38.9585" lon="-77.162"><ele>2691.18</ele><time>2026-04-26T01:44:38+00:00</time></trkpt><trkpt lat="38.8278" lon="-76.9709"><ele>2782.1</ele><time>2026-04-26T01:49:45+00:00</time></trkpt><trkpt lat="38.9101" lon="-77.2389"><ele>3118.24</ele><time>2026-04-26T01:54:51+00:00</time></trkpt><trkpt lat="38.9272" lon="-77.1137"><ele>1923.5</ele><time>2026-04-26T01:59:57+00:00</time></trkpt><trkpt lat="38.8438" lon="-77.0387"><ele>8.24</ele><time>2026-04-26T02:04:36+00:00</time></trkpt></trkseg></trk><trk><name>ADV9006 Adventures | N905NN B737-823 (B738) | KATL - KDCA</name><number>1</number><trkseg><trkpt lat="33.6423" lon="-84.4419"><ele>1005.21</ele><time>2026-04-23T14:30:49+00:00</time></trkpt><trkpt lat="33.6423" lon="-84.4419"><ele>1005.21</ele><time>2026-04-23T14:30:49+00:00</time></trkpt><trkpt lat="33.6423" lon="-84.4419"><ele>1005.21</ele><time>2026-04-23T14:30:49+00:00</time></trkpt><trkpt lat="33.6423" lon="-84.4419"><ele>1005.21</ele><time>2026-04-23T14:30:49+00:00</time></trkpt><trkpt lat="33.6426" lon="-84.4411"><ele>1005.23</ele><time>2026-04-23T15:39:37+00:00</time></trkpt><trkpt lat="33.6426" lon="-84.4411"><ele>1005.23</ele><time>2026-04-23T15:44:48+00:00</time></trkpt><trkpt lat="33.6366" lon="-84.4151"><ele>1004.87</ele><time>2026-04-23T15:49:57+00:00</time></trkpt><trkpt lat="33.6359" lon="-84.4074"><ele>1006.07</ele><time>2026-04-23T15:54:35+00:00</time></trkpt><trkpt lat="33.6359" lon="-84.4074"><ele>1006.07</ele><time>2026-04-23T15:59:44+00:00</time></trkpt><trkpt lat="33.6358" lon="-84.4074"><ele>1015.27</ele><time>2026-04-23T16:04:54+00:00</time></trkpt><trkpt lat="33.635" lon="-84.4074"><ele>1015.04</ele><time>2026-04-23T16:10:03+00:00</time></trkpt><trkpt lat="33.5325" lon="-84.585"><ele>7829.07</ele><time>2026-04-23T16:14:45+00:00</time></trkpt><trkpt lat="33.541" lon="-84.1456"><ele>17674.1</ele><time>2026-04-23T16:19:51+00:00</time></trkpt><trkpt lat="33.8429" lon="-83.4957"><ele>25868.9</ele><time>2026-04-23T16:24:55+00:00</time></trkpt><trkpt lat="34.1997" lon="-82.8225"><ele>32896.2</ele><time>2026-04-23T16:30:01+00:00</time></trkpt><trkpt lat="34.5272" lon="-82.1685"><ele>36999.5</ele><time>2026-04-23T16:34:35+00:00</time></trkpt><trkpt lat="34.8962" lon="-81.5598"><ele>37002.1</ele><time>2026-04-23T16:39:39+00:00</time></trkpt><trkpt lat="35.2648" lon="-80.9405"><ele>37000.6</ele><time>2026-04-23T16:44:43+00:00</time></trkpt><trkpt lat="35.6281" lon="-80.3198"><ele>36996.9</ele><time>2026-04-23T16:49:48+00:00</time></trkpt><trkpt lat="35.9899" lon="-79.6936"><ele>36995.4</ele><time>2026-04-23T16:54:52+00:00</time></trkpt><trkpt lat="36.356" lon="-79.0642"><ele>36998.1</ele><time>2026-04-23T16:59:57+00:00</time></trkpt><trkpt lat="36.7488" lon="-78.4688"><ele>36999.6</ele><time>2026-04-23T17:05:01+00:00</time></trkpt><trkpt lat="37.1911" lon="-77.9344"><ele>33308.6</ele><time>2026-04-23T17:09:36+00:00</time></trkpt><trkpt lat="37.8049" lon="-77.3807"><ele>17996</ele><time>2026-04-23T17:14:42+00:00</time></trkpt><trkpt lat="38.2274" lon="-77.2493"><ele>10666.5</ele><time>2026-04-23T17:19:48+00:00</time></trkpt><trkpt lat="38.5589" lon="-77.1008"><ele>5026.09</ele><time>2026-04-23T17:25:04+00:00</time></trkpt><trkpt lat="38.8583" lon="-77.0385"><ele>28.38</ele><time>2026-04-23T17:29:34+00:00</time></trkpt></trkseg></trk></gpx>